Time;durP1;ratioP1;P1;durP2;ratioP2;P2;SDS_P1;SDS_P2;PMS_P1;PMS_P2;Temp;Humidity;BMP_temperature;BMP_pressure;BME280_temperature;BME280_humidity;BME280_pressure;Samples;Min_cycle;Max_cycle;Signal;HPM_P1;HPM_P2
2023/05/28 00:01:06;;;;;;;12.57;7.13;;;;;;;12.89;49.72;101594.63;7394398;19;20078;-67
2023/05/28 00:03:35;;;;;;;11.32;6.90;;;;;;;12.86;49.97;101597.31;7393391;19;20018;-67
2023/05/28 00:06:04;;;;;;;10.57;6.22;;;;;;;12.81;49.94;101586.84;7395771;19;20413;-67
2023/05/28 00:08:32;;;;;;;12.25;6.97;;;;;;;12.80;50.08;101584.25;7400031;19;20033;-67
2023/05/28 00:11:02;;;;;;;11.18;6.60;;;;;;;12.75;50.42;101581.72;7401187;19;20082;-68
2023/05/28 00:13:31;;;;;;;9.45;5.63;;;;;;;12.69;50.64;101572.13;7399925;19;20489;-67
2023/05/28 00:16:02;;;;;;;8.15;5.82;;;;;;;12.67;50.91;101579.19;7401013;19;20017;-67
2023/05/28 00:18:30;;;;;;;15.05;8.73;;;;;;;12.61;51.36;101581.06;7401407;19;20414;-67
2023/05/28 00:21:00;;;;;;;23.17;15.75;;;;;;;12.53;51.53;101576.78;7400958;19;20010;-67
2023/05/28 00:23:28;;;;;;;29.15;22.88;;;;;;;12.47;51.68;101576.91;7400059;19;20014;-68
2023/05/28 00:25:57;;;;;;;31.80;22.80;;;;;;;12.41;51.88;101573.50;7401058;19;20029;-68
2023/05/28 00:28:25;;;;;;;23.80;17.95;;;;;;;12.33;51.98;101579.78;7399028;19;20049;-67
2023/05/28 00:30:54;;;;;;;19.08;13.32;;;;;;;12.28;52.27;101580.72;7400521;19;20381;-69
2023/05/28 00:33:25;;;;;;;20.40;11.13;;;;;;;12.20;52.52;101579.06;7398109;19;20094;-68
2023/05/28 00:35:55;;;;;;;20.00;10.85;;;;;;;12.13;52.73;101574.81;7401124;19;20014;-68
2023/05/28 00:38:24;;;;;;;18.30;11.10;;;;;;;12.04;52.94;101574.94;7401082;19;20018;-68
2023/05/28 00:40:54;;;;;;;16.67;9.60;;;;;;;11.97;53.12;101574.16;7397631;19;20485;-68
2023/05/28 00:43:22;;;;;;;14.07;7.40;;;;;;;11.90;53.21;101581.25;7399464;19;20023;-68
2023/05/28 00:45:53;;;;;;;13.13;6.72;;;;;;;11.85;53.41;101575.19;7400005;19;20392;-67
2023/05/28 00:48:21;;;;;;;11.00;6.32;;;;;;;11.78;53.47;101568.25;7397415;19;20550;-68
2023/05/28 00:50:53;;;;;;;7.57;5.07;;;;;;;11.73;53.71;101570.06;7397423;19;20011;-68
2023/05/28 00:53:21;;;;;;;7.65;5.50;;;;;;;11.68;53.70;101566.66;7398947;19;20014;-68
2023/05/28 00:55:50;;;;;;;8.98;6.32;;;;;;;11.65;53.96;101571.94;7400088;19;20074;-68
2023/05/28 00:58:20;;;;;;;8.73;5.55;;;;;;;11.61;54.13;101570.22;7399958;19;20038;-67
2023/05/28 01:00:48;;;;;;;8.65;5.78;;;;;;;11.56;54.08;101565.91;7399946;19;20504;-68
2023/05/28 01:03:17;;;;;;;11.98;5.47;;;;;;;11.53;54.35;101570.34;7397026;19;20502;-68
2023/05/28 01:05:47;;;;;;;5.80;5.18;;;;;;;11.49;54.43;101572.13;7399169;19;20382;-68
2023/05/28 01:08:18;;;;;;;9.20;5.00;;;;;;;11.47;54.67;101570.41;7398890;19;20041;-68
2023/05/28 01:10:47;;;;;;;8.35;5.00;;;;;;;11.44;54.73;101565.16;7400142;19;20018;-68
2023/05/28 01:13:16;;;;;;;6.85;4.68;;;;;;;11.40;54.79;101567.00;7398850;19;20022;-68
2023/05/28 01:15:45;;;;;;;8.48;5.03;;;;;;;11.36;54.99;101560.91;7399139;19;20070;-68
2023/05/28 01:18:14;;;;;;;7.22;4.97;;;;;;;11.34;54.94;101564.44;7398709;19;20037;-68
2023/05/28 01:20:43;;;;;;;8.82;5.38;;;;;;;11.31;55.09;101551.31;7399277;19;20014;-68
2023/05/28 01:23:20;;;;;;;12.65;7.25;;;;;;;11.29;55.29;101559.22;7398702;19;20045;-68
2023/05/28 01:25:52;;;;;;;16.25;8.27;;;;;;;11.24;55.61;101555.78;7399557;19;20109;-68
2023/05/28 01:28:22;;;;;;;16.65;8.70;;;;;;;11.20;55.76;101552.31;7397845;19;20016;-69
2023/05/28 01:30:52;;;;;;;18.95;9.13;;;;;;;11.14;55.80;101549.75;7398912;19;20090;-68
2023/05/28 01:33:22;;;;;;;16.17;8.45;;;;;;;11.04;55.87;101548.97;7398112;19;20037;-67
2023/05/28 01:35:53;;;;;;;15.80;9.10;;;;;;;10.98;56.06;101550.81;7396612;19;20022;-67
2023/05/28 01:38:24;;;;;;;13.80;7.82;;;;;;;10.88;56.06;101556.16;7399122;19;20037;-67
2023/05/28 01:40:57;;;;;;;13.43;8.20;;;;;;;10.80;56.09;101555.34;7396947;19;20018;-67
2023/05/28 01:43:26;;;;;;;15.68;8.23;;;;;;;10.74;56.21;101547.53;7398109;19;20086;-67
2023/05/28 01:45:56;;;;;;;20.23;9.95;;;;;;;10.69;56.30;101549.34;7398077;19;20549;-67
2023/05/28 01:48:26;;;;;;;14.07;8.88;;;;;;;10.64;56.28;101552.03;7397744;19;20019;-67
2023/05/28 01:50:55;;;;;;;16.50;9.45;;;;;;;10.61;56.29;101553.81;7398413;19;20015;-67
2023/05/28 01:53:24;;;;;;;18.30;9.45;;;;;;;10.55;56.30;101547.72;7397445;19;20473;-67
2023/05/28 01:55:55;;;;;;;18.67;8.95;;;;;;;10.51;56.52;101545.13;7397733;19;20015;-67
2023/05/28 01:58:24;;;;;;;19.35;9.27;;;;;;;10.47;56.62;101554.78;7396457;19;20022;-68
2023/05/28 02:01:05;;;;;;;19.35;9.57;;;;;;;10.45;56.92;101555.69;7397925;19;20351;-67
2023/05/28 02:03:33;;;;;;;19.75;9.52;;;;;;;10.41;57.01;101552.22;7397301;19;20082;-68
2023/05/28 02:06:02;;;;;;;20.63;10.45;;;;;;;10.37;57.18;101550.50;7397249;19;20101;-67
2023/05/28 02:08:30;;;;;;;19.20;10.68;;;;;;;10.32;57.45;101553.13;7396721;19;20017;-68
2023/05/28 02:11:02;;;;;;;23.73;11.55;;;;;;;10.27;57.58;101547.03;7397679;19;20022;-68
2023/05/28 02:13:31;;;;;;;23.85;11.85;;;;;;;10.22;57.65;101548.81;7396435;19;20014;-69
2023/05/28 02:16:00;;;;;;;23.17;11.57;;;;;;;10.16;57.80;101544.50;7397436;19;20018;-65
2023/05/28 02:18:28;;;;;;;22.33;11.90;;;;;;;10.09;58.11;101543.66;7396999;19;20021;-65
2023/05/28 02:20:56;;;;;;;22.90;11.20;;;;;;;10.06;58.22;101542.81;7396911;19;20074;-65
2023/05/28 02:23:25;;;;;;;22.60;12.07;;;;;;;10.01;58.40;101545.47;7394989;19;20370;-65
2023/05/28 02:25:53;;;;;;;13.80;7.63;;;;;;;9.97;58.64;101541.16;7395358;19;20086;-65
2023/05/28 02:28:25;;;;;;;9.57;5.68;;;;;;;9.94;58.81;101549.00;7394242;19;20078;-65
2023/05/28 02:30:53;;;;;;;9.50;5.78;;;;;;;9.90;59.07;101548.16;7394918;19;20010;-65
2023/05/28 02:33:22;;;;;;;6.47;5.05;;;;;;;9.84;59.28;101542.09;7395936;19;20025;-70
2023/05/28 02:35:50;;;;;;;8.98;5.65;;;;;;;9.77;59.62;101546.50;7396740;19;20041;-66
2023/05/28 02:38:19;;;;;;;6.03;4.63;;;;;;;9.72;59.68;101543.03;7396710;19;20386;-67
2023/05/28 02:40:47;;;;;;;6.82;4.95;;;;;;;9.67;59.80;101544.78;7396156;19;20541;-67
2023/05/28 02:43:16;;;;;;;6.40;4.60;;;;;;;9.61;59.99;101541.31;7395933;19;20093;-67
2023/05/28 02:45:47;;;;;;;6.53;4.85;;;;;;;9.57;60.18;101544.84;7396421;19;20023;-67
2023/05/28 02:48:15;;;;;;;7.97;4.38;;;;;;;9.50;60.21;101540.50;7395829;19;20078;-67
2023/05/28 02:50:44;;;;;;;8.45;4.82;;;;;;;9.45;60.49;101542.28;7396347;19;20077;-67
2023/05/28 02:53:12;;;;;;;7.47;4.25;;;;;;;9.40;60.51;101549.28;7395726;19;20070;-67
2023/05/28 02:55:46;;;;;;;7.32;4.43;;;;;;;9.36;60.70;101550.19;7395799;19;20074;-67
2023/05/28 02:58:15;;;;;;;6.90;4.28;;;;;;;9.32;60.83;101543.22;7394482;19;20018;-66
2023/05/28 03:00:46;;;;;;;8.25;4.60;;;;;;;9.29;60.87;101547.56;7395552;19;20348;-67
2023/05/28 03:03:15;;;;;;;6.93;4.15;;;;;;;9.26;61.07;101550.22;7395736;19;20025;-67
2023/05/28 03:05:43;;;;;;;7.05;4.28;;;;;;;9.24;61.21;101544.09;7395842;19;20015;-66
2023/05/28 03:08:12;;;;;;;6.07;4.00;;;;;;;9.23;61.31;101544.97;7393997;19;20082;-66
2023/05/28 03:10:40;;;;;;;8.93;4.57;;;;;;;9.22;61.37;101547.59;7395407;19;20192;-67
2023/05/28 03:13:09;;;;;;;6.20;4.20;;;;;;;9.18;61.70;101546.75;7394791;19;20481;-67
2023/05/28 03:15:37;;;;;;;6.95;4.20;;;;;;;9.15;61.91;101546.75;7395605;19;20021;-67
2023/05/28 03:18:09;;;;;;;7.75;4.32;;;;;;;9.10;62.54;101549.38;7393994;19;20019;-66
2023/05/28 03:20:37;;;;;;;6.68;4.28;;;;;;;9.07;62.20;101552.03;7395934;19;20420;-67
2023/05/28 03:23:05;;;;;;;7.18;4.07;;;;;;;9.06;62.34;101544.16;7395001;19;20027;-67
2023/05/28 03:28:09;;;;;;;7.03;3.90;;;;;;;8.99;62.43;101545.91;7392967;19;20014;-67
2023/05/28 03:30:38;;;;;;;6.10;4.60;;;;;;;8.97;62.38;101547.66;7393889;19;20027;-66
2023/05/28 03:33:09;;;;;;;7.38;5.00;;;;;;;8.95;62.56;101545.06;7393391;19;20018;-66
2023/05/28 03:35:38;;;;;;;6.13;4.32;;;;;;;8.94;62.53;101545.06;7395598;19;20033;-66
2023/05/28 03:38:06;;;;;;;5.82;4.40;;;;;;;8.94;62.72;101545.91;7394730;19;20485;-66
2023/05/28 03:40:35;;;;;;;7.28;4.75;;;;;;;8.93;62.58;101546.81;7398603;19;20035;-67
2023/05/28 03:43:05;;;;;;;7.35;4.30;;;;;;;8.92;62.71;101544.19;7401878;19;20085;-66
2023/05/28 03:45:33;;;;;;;5.97;4.50;;;;;;;8.92;62.89;101549.41;7402011;19;20378;-66
2023/05/28 03:48:04;;;;;;;5.68;4.60;;;;;;;8.91;62.80;101543.31;7402019;19;20477;-66
2023/05/28 03:50:36;;;;;;;7.80;4.53;;;;;;;8.93;63.03;101545.94;7399034;19;20034;-66
2023/05/28 03:53:05;;;;;;;7.28;4.40;;;;;;;8.94;63.19;101547.69;7399022;19;20106;-66
2023/05/28 03:55:35;;;;;;;8.80;5.28;;;;;;;8.94;63.06;101543.31;7402149;19;20019;-66
2023/05/28 03:58:04;;;;;;;9.50;4.88;;;;;;;8.94;63.15;101543.31;7398856;19;20507;-66
2023/05/28 04:00:33;;;;;;;8.35;4.43;;;;;;;8.95;63.26;101539.81;7402015;19;20037;-66
2023/05/28 04:03:03;;;;;;;6.72;4.82;;;;;;;8.97;63.43;101539.81;7398964;19;20026;-66
2023/05/28 04:05:33;;;;;;;6.80;4.60;;;;;;;8.98;63.65;101543.31;7401578;19;20015;-66
2023/05/28 04:08:04;;;;;;;10.90;5.13;;;;;;;9.00;63.79;101537.19;7401818;19;20350;-66
2023/05/28 04:10:33;;;;;;;8.18;5.68;;;;;;;9.01;63.79;101541.56;7399013;19;20035;-67
2023/05/28 04:13:01;;;;;;;7.53;5.13;;;;;;;9.02;63.76;101543.28;7398736;19;20018;-66
2023/05/28 04:15:30;;;;;;;6.68;4.80;;;;;;;9.04;63.81;101544.16;7401533;19;20014;-66
2023/05/28 04:17:58;;;;;;;6.72;4.82;;;;;;;9.05;63.83;101551.16;7401495;19;20015;-67
2023/05/28 04:20:27;;;;;;;8.85;6.18;;;;;;;9.08;63.64;101534.56;7401243;19;20023;-67
2023/05/28 04:22:55;;;;;;;9.57;6.55;;;;;;;9.10;63.75;101531.06;7400757;19;20026;-66
2023/05/28 04:25:27;;;;;;;20.02;10.75;;;;;;;9.13;63.94;101533.66;7398068;19;20419;-67
2023/05/28 04:27:56;;;;;;;11.73;8.02;;;;;;;9.19;63.91;101534.53;7400904;19;20029;-66
2023/05/28 04:30:25;;;;;;;13.05;7.60;;;;;;;9.24;63.77;101531.00;7398620;19;20505;-67
2023/05/28 04:32:53;;;;;;;9.00;8.10;;;;;;;9.29;63.67;101531.00;7400468;19;20030;-66
2023/05/28 04:35:22;;;;;;;14.18;9.95;;;;;;;9.34;63.84;101528.34;7398162;19;20031;-67
2023/05/28 04:37:51;;;;;;;17.55;9.80;;;;;;;9.39;63.87;101529.19;7400788;19;20035;-67
2023/05/28 04:40:21;;;;;;;12.23;9.02;;;;;;;9.45;64.12;101539.66;7400213;19;20033;-67
2023/05/28 04:42:53;;;;;;;11.93;9.35;;;;;;;9.50;64.02;101531.78;7399833;19;20503;-66
2023/05/28 04:45:22;;;;;;;13.80;9.20;;;;;;;9.56;64.04;101532.63;7399939;19;20022;-66
2023/05/28 04:47:51;;;;;;;16.02;11.23;;;;;;;9.61;63.95;101536.09;7400487;19;20040;-66
2023/05/28 04:50:21;;;;;;;16.92;9.55;;;;;;;9.67;63.89;101540.44;7397871;19;20365;-66
2023/05/28 04:52:50;;;;;;;15.35;10.90;;;;;;;9.73;64.00;101556.13;7398121;19;20014;-66
2023/05/28 04:55:18;;;;;;;17.70;10.18;;;;;;;9.80;64.01;101550.84;7399835;19;20027;-66
2023/05/28 04:57:47;;;;;;;12.15;9.40;;;;;;;9.85;64.05;101549.94;7397746;19;20081;-67
2023/05/28 05:00:19;;;;;;;14.50;9.55;;;;;;;9.90;63.88;101542.91;7399607;19;20059;-67
2023/05/28 05:02:47;;;;;;;16.50;9.85;;;;;;;9.96;63.75;101544.66;7397992;19;20026;-67
2023/05/28 05:05:16;;;;;;;11.13;8.18;;;;;;;10.02;63.77;101542.00;7397479;19;20022;-66
2023/05/28 05:07:45;;;;;;;15.20;8.55;;;;;;;10.08;63.67;101539.31;7399762;19;20018;-67
2023/05/28 05:10:13;;;;;;;12.68;8.20;;;;;;;10.13;63.57;101539.28;7398325;19;20035;-66
2023/05/28 05:12:42;;;;;;;10.98;8.18;;;;;;;10.19;63.69;101531.38;7396625;19;20015;-67
2023/05/28 05:15:11;;;;;;;13.75;8.20;;;;;;;10.25;63.72;101533.94;7399196;19;20018;-67
2023/05/28 05:17:42;;;;;;;12.85;7.97;;;;;;;10.31;63.51;101535.63;7397074;19;20022;-67
2023/05/28 05:20:12;;;;;;;10.65;8.10;;;;;;;10.37;63.48;101543.47;7399762;19;20034;-67
2023/05/28 05:22:40;;;;;;;10.82;7.63;;;;;;;10.43;63.47;101532.09;7398758;19;20070;-67
2023/05/28 05:25:09;;;;;;;11.70;7.43;;;;;;;10.51;63.48;101534.63;7399277;19;20027;-67
2023/05/28 05:27:38;;;;;;;15.82;8.10;;;;;;;10.56;63.40;101532.84;7397269;19;20022;-67
2023/05/28 05:30:09;;;;;;;11.48;7.43;;;;;;;10.62;63.29;101543.28;7396994;19;20010;-67
2023/05/28 05:32:37;;;;;;;11.40;7.05;;;;;;;10.69;63.21;101538.84;7399160;19;20032;-67
2023/05/28 05:35:09;;;;;;;16.80;8.77;;;;;;;10.74;63.37;101540.56;7398594;19;20094;-67
2023/05/28 05:37:38;;;;;;;12.27;8.07;;;;;;;10.81;63.23;101532.63;7396743;19;20033;-67
2023/05/28 05:40:08;;;;;;;11.75;8.13;;;;;;;10.87;63.11;101538.66;7396665;19;20018;-67
2023/05/28 05:42:37;;;;;;;10.40;7.85;;;;;;;10.94;63.09;101538.59;7398988;19;20020;-67
2023/05/28 05:45:09;;;;;;;12.52;8.57;;;;;;;10.99;63.04;101539.44;7398394;19;20019;-67
2023/05/28 05:47:44;;;;;;;13.52;8.07;;;;;;;11.06;62.88;101539.34;7399109;19;20361;-67
2023/05/28 05:50:16;;;;;;;12.93;8.43;;;;;;;11.13;62.93;101539.28;7397582;19;20018;-67
2023/05/28 05:52:44;;;;;;;12.05;8.75;;;;;;;11.19;62.70;101533.97;7396470;19;20014;-67
2023/05/28 05:55:12;;;;;;;10.65;7.53;;;;;;;11.25;62.66;101537.38;7398081;19;20022;-67
2023/05/28 05:57:41;;;;;;;11.75;7.80;;;;;;;11.33;62.42;101542.53;7398208;19;20019;-67
2023/05/28 06:00:13;;;;;;;11.98;7.45;;;;;;;11.40;62.28;101532.84;7395903;19;20024;-67
2023/05/28 06:02:41;;;;;;;15.18;7.22;;;;;;;11.47;62.14;101539.72;7397717;19;20049;-67
2023/05/28 06:05:10;;;;;;;15.07;7.72;;;;;;;11.55;62.16;101543.16;7393226;19;20489;-67
2023/05/28 06:07:42;;;;;;;11.90;7.15;;;;;;;11.63;62.03;101535.16;7397522;19;20018;-68
2023/05/28 06:10:11;;;;;;;10.10;6.50;;;;;;;11.71;61.87;101532.41;7395167;19;20007;-66
2023/05/28 06:12:39;;;;;;;9.98;7.20;;;;;;;11.80;61.74;101531.41;7395605;19;20022;-67
2023/05/28 06:15:09;;;;;;;10.13;7.00;;;;;;;11.88;61.44;101524.31;7397102;19;20014;-66
2023/05/28 06:17:37;;;;;;;14.77;6.93;;;;;;;11.97;61.32;101518.94;7397391;19;20010;-66
2023/05/28 06:20:07;;;;;;;11.95;7.03;;;;;;;12.05;61.10;101526.69;7395218;19;20481;-67
2023/05/28 06:22:35;;;;;;;11.43;6.85;;;;;;;12.16;61.01;101531.81;7395140;19;20377;-66
2023/05/28 06:25:25;;;;;;;12.88;7.10;;;;;;;12.26;60.83;101525.50;6292017;19;22210338;-67
2023/05/28 06:27:54;;;;;;;10.35;7.10;;;;;;;12.35;60.37;101520.06;7432153;19;20018;-67
2023/05/28 06:30:22;;;;;;;11.15;6.78;;;;;;;12.47;60.28;101520.75;7431360;19;20509;-67
2023/05/28 06:32:51;;;;;;;11.80;6.82;;;;;;;12.57;59.84;101522.34;7430759;19;20010;-67
2023/05/28 06:35:19;;;;;;;9.32;6.50;;;;;;;12.68;59.82;101516.88;7428056;19;20015;-67
2023/05/28 06:37:48;;;;;;;9.88;6.47;;;;;;;12.77;59.63;101521.97;7431178;19;20438;-67
2023/05/28 06:40:19;;;;;;;8.98;6.25;;;;;;;12.89;59.46;101520.91;7430876;19;20510;-67
2023/05/28 06:42:48;;;;;;;9.13;5.47;;;;;;;13.00;58.89;101520.66;7431094;19;20102;-67
2023/05/28 06:45:17;;;;;;;7.40;5.28;;;;;;;13.11;58.37;101523.97;7431055;19;20018;-67
2023/05/28 06:47:46;;;;;;;11.57;6.28;;;;;;;13.23;58.11;101521.97;7430660;19;20020;-67
2023/05/28 06:50:14;;;;;;;7.55;4.85;;;;;;;13.35;57.64;101524.38;7431039;19;20018;-67
2023/05/28 06:52:43;;;;;;;8.73;4.97;;;;;;;13.46;57.48;101522.41;7430591;19;20086;-67
2023/05/28 06:55:11;;;;;;;9.63;5.13;;;;;;;13.58;57.18;101518.63;7430686;19;20022;-67
2023/05/28 06:57:44;;;;;;;8.68;5.63;;;;;;;13.71;56.99;101519.25;7430787;19;20031;-67
2023/05/28 07:00:14;;;;;;;8.52;5.00;;;;;;;13.84;56.29;101522.47;7430224;19;20020;-67
2023/05/28 07:02:42;;;;;;;12.45;6.60;;;;;;;13.97;55.95;101513.34;7429973;19;20017;-67
2023/05/28 07:05:12;;;;;;;12.90;4.90;;;;;;;14.10;55.73;101513.94;7427607;19;20022;-67
2023/05/28 07:07:40;;;;;;;8.25;5.00;;;;;;;14.23;55.00;101513.63;7429826;19;20014;-67
2023/05/28 07:10:10;;;;;;;11.30;5.88;;;;;;;14.34;54.53;101509.81;7429741;19;20371;-67
2023/05/28 07:12:38;;;;;;;10.10;4.30;;;;;;;14.46;54.01;101513.91;7429802;19;20026;-68
2023/05/28 07:15:10;;;;;;;12.27;6.75;;;;;;;14.61;53.26;101517.09;7427385;19;20082;-67
2023/05/28 07:17:39;;;;;;;10.65;4.95;;;;;;;14.73;53.23;101516.75;7427512;19;20040;-67
2023/05/28 07:20:09;;;;;;;11.70;4.97;;;;;;;14.85;52.55;101514.69;7429267;19;20433;-67
2023/05/28 07:22:38;;;;;;;8.15;5.25;;;;;;;14.96;52.07;101512.63;7429475;19;20094;-67
2023/05/28 07:25:07;;;;;;;6.43;4.75;;;;;;;15.09;51.52;101510.50;7426847;19;20393;-67
2023/05/28 07:27:36;;;;;;;7.95;4.78;;;;;;;15.21;50.30;101510.16;7429788;19;20018;-67
2023/05/28 07:30:04;;;;;;;6.90;3.42;;;;;;;15.35;49.59;101511.53;7426736;19;20422;-68
2023/05/28 07:32:36;;;;;;;7.03;3.35;;;;;;;15.45;48.79;101510.34;7429333;19;20544;-67
2023/05/28 07:35:04;;;;;;;6.63;3.95;;;;;;;15.58;48.03;101508.19;7418339;19;20388;-67
2023/05/28 07:37:33;;;;;;;8.63;4.53;;;;;;;15.70;47.69;101513.13;7397888;19;20019;-67
2023/05/28 07:40:01;;;;;;;7.60;3.88;;;;;;;15.82;47.22;101506.59;7399993;19;20019;-67
2023/05/28 07:42:30;;;;;;;7.43;3.53;;;;;;;15.93;46.92;101509.75;7400193;19;20033;-67
2023/05/28 07:44:58;;;;;;;5.18;3.15;;;;;;;16.03;46.12;101498.91;7397074;19;20022;-67
2023/05/28 07:47:27;;;;;;;7.10;2.88;;;;;;;16.13;45.29;101498.53;7396949;19;20485;-67
2023/05/28 07:49:58;;;;;;;5.03;2.63;;;;;;;16.24;43.92;101502.63;7399910;19;20018;-67
2023/05/28 07:52:29;;;;;;;6.85;3.30;;;;;;;16.33;44.27;101494.38;7401116;19;20022;-67
2023/05/28 07:54:59;;;;;;;3.97;2.45;;;;;;;16.43;43.82;101501.06;7397460;19;20022;-67
2023/05/28 07:57:27;;;;;;;5.20;2.75;;;;;;;16.52;43.30;101491.09;7395991;19;20026;-67
2023/05/28 07:59:56;;;;;;;7.43;4.07;;;;;;;16.61;43.49;101494.28;7397144;19;20028;-67
2023/05/28 08:02:24;;;;;;;7.93;3.30;;;;;;;16.71;43.20;101489.50;7399593;19;20014;-67
2023/05/28 08:04:53;;;;;;;7.05;2.80;;;;;;;16.81;42.44;101491.81;7397008;19;20022;-67
2023/05/28 08:07:24;;;;;;;5.82;2.50;;;;;;;16.91;41.87;101485.34;7399487;19;20011;-67
2023/05/28 08:09:53;;;;;;;6.85;3.22;;;;;;;17.01;41.39;101493.78;7399802;19;20014;-67
2023/05/28 08:12:21;;;;;;;5.80;2.20;;;;;;;17.09;40.69;101489.09;7396736;19;20485;-67
2023/05/28 08:14:50;;;;;;;6.72;2.55;;;;;;;17.18;40.40;101495.81;7396463;19;20104;-67
2023/05/28 08:17:19;;;;;;;4.82;2.20;;;;;;;17.26;39.87;101484.00;7399301;19;20094;-68
2023/05/28 08:19:47;;;;;;;3.90;1.77;;;;;;;17.33;39.59;101489.94;7396771;19;20022;-67
2023/05/28 08:22:15;;;;;;;6.75;2.50;;;;;;;17.39;39.16;101484.41;7398879;19;20027;-67
2023/05/28 08:24:47;;;;;;;6.63;3.10;;;;;;;17.46;38.90;101485.00;7395532;19;20496;-67
2023/05/28 08:27:15;;;;;;;4.35;2.30;;;;;;;17.51;38.71;101490.16;7399104;19;20391;-67
2023/05/28 08:29:43;;;;;;;7.93;2.65;;;;;;;17.59;38.44;101480.09;7395887;19;20076;-67
2023/05/28 08:32:12;;;;;;;7.53;2.70;;;;;;;17.67;38.12;101488.63;7396394;19;20143;-67
2023/05/28 08:34:40;;;;;;;5.13;2.90;;;;;;;17.77;37.63;101480.28;7396241;19;20022;-67
2023/05/28 08:37:09;;;;;;;4.70;2.38;;;;;;;17.83;37.58;101482.69;7396301;19;20036;-67
2023/05/28 08:39:38;;;;;;;7.75;2.40;;;;;;;17.90;37.44;101484.19;7396305;19;20025;-67
2023/05/28 08:42:09;;;;;;;5.13;2.33;;;;;;;17.96;37.27;101467.16;7398109;19;20430;-67
2023/05/28 08:44:38;;;;;;;4.82;2.67;;;;;;;18.04;36.96;101473.88;7396013;19;20427;-67
2023/05/28 08:47:07;;;;;;;5.78;2.13;;;;;;;18.13;36.70;101469.13;7395211;19;20031;-67
2023/05/28 08:49:42;;;;;;;5.57;2.33;;;;;;;18.21;36.39;101478.50;7397912;19;20014;-67
2023/05/28 08:52:13;;;;;;;5.03;2.15;;;;;;;18.26;36.93;101470.34;7397205;19;20014;-67
2023/05/28 08:54:43;;;;;;;3.88;2.20;;;;;;;18.36;36.29;101469.03;7395341;19;20381;-67
2023/05/28 08:57:14;;;;;;;4.65;2.25;;;;;;;18.46;35.42;101473.94;7397544;19;20021;-67
2023/05/28 08:59:43;;;;;;;4.65;2.40;;;;;;;18.53;35.56;101472.75;7398178;19;20036;-68
2023/05/28 09:02:12;;;;;;;8.43;2.40;;;;;;;18.61;35.42;101469.75;7397274;19;20410;-68
2023/05/28 09:04:45;;;;;;;8.25;2.55;;;;;;;18.67;34.96;101472.97;7395852;19;20090;-68
2023/05/28 09:07:14;;;;;;;;;;;;;;;18.72;33.95;101465.66;7396318;19;20388;-67
2023/05/28 09:09:42;;;;;;;3.10;2.40;;;;;;;18.77;34.53;101464.63;7397230;19;19926;-67
2023/05/28 09:12:15;;;;;;;3.47;2.08;;;;;;;18.82;33.42;101459.97;7397351;19;20115;-67
2023/05/28 09:14:45;;;;;;;3.95;2.03;;;;;;;18.87;33.61;101461.47;7395966;19;20022;-67
2023/05/28 09:17:13;;;;;;;5.35;2.28;;;;;;;18.93;33.48;101460.38;7396622;19;20014;-66
2023/05/28 09:19:42;;;;;;;4.47;2.35;;;;;;;18.99;33.43;101459.22;7397297;19;20488;-66
2023/05/28 09:22:15;;;;;;;6.28;2.25;;;;;;;19.02;33.40;101462.59;7395130;19;20027;-66
2023/05/28 09:24:45;;;;;;;6.00;2.25;;;;;;;19.05;33.12;101461.59;7395160;19;20090;-66
2023/05/28 09:27:19;;;;;;;4.85;1.90;;;;;;;19.10;33.48;101462.22;7394760;19;20035;-66
2023/05/28 09:29:47;;;;;;;4.07;2.10;;;;;;;19.13;32.91;101447.94;7395587;19;20022;-66
2023/05/28 09:32:20;;;;;;;5.25;2.05;;;;;;;19.16;32.36;101445.16;7394988;19;20040;-67
2023/05/28 09:34:51;;;;;;;3.73;2.20;;;;;;;19.17;32.65;101441.53;7395252;19;20022;-67
2023/05/28 09:37:20;;;;;;;5.97;2.15;;;;;;;19.22;33.17;101434.19;7396571;19;20517;-66
2023/05/28 09:39:49;;;;;;;3.45;2.28;;;;;;;19.28;33.01;101433.06;7394723;19;20018;-66
2023/05/28 09:42:23;;;;;;;3.70;2.20;;;;;;;19.29;32.61;101430.31;7396101;19;20026;-66
2023/05/28 09:44:51;;;;;;;6.88;2.40;;;;;;;19.31;32.97;101427.56;7393472;19;20014;-66
2023/05/28 09:47:21;;;;;;;5.22;2.65;;;;;;;19.35;32.88;101424.69;7395398;19;20042;-66
2023/05/28 09:49:50;;;;;;;3.38;2.25;;;;;;;19.41;33.08;101420.03;7395773;19;20044;-66
2023/05/28 09:52:21;;;;;;;4.70;2.25;;;;;;;19.47;32.66;101427.72;7395489;19;20046;-66
2023/05/28 09:54:53;;;;;;;3.53;1.98;;;;;;;19.49;32.46;101425.84;7393754;19;20018;-66
2023/05/28 09:57:27;;;;;;;3.83;2.42;;;;;;;19.50;32.66;101423.09;7395524;19;20018;-66
2023/05/28 09:59:56;;;;;;;;;;;;;;;19.54;32.38;101421.16;7395952;19;20034;-66
2023/05/28 10:02:34;;;;;;;4.10;2.20;;;;;;;19.59;32.83;101418.25;7395454;19;20006;-67
2023/05/28 10:05:09;;;;;;;4.15;2.10;;;;;;;19.64;32.43;101411.78;7394629;19;20481;-66
2023/05/28 10:07:40;;;;;;;7.68;2.10;;;;;;;19.78;31.92;101412.91;7396159;19;20022;-67
2023/05/28 10:10:13;;;;;;;6.15;2.50;;;;;;;19.84;32.13;101410.81;7394364;19;20039;-66
2023/05/28 10:12:45;;;;;;;;;;;;;;;19.88;31.88;101413.31;7396343;19;20023;-67
2023/05/28 10:15:14;;;;;;;4.38;2.30;;;;;;;19.92;31.92;101409.59;7394175;19;19923;-67
2023/05/28 10:17:43;;;;;;;3.75;2.13;;;;;;;19.98;30.79;101412.78;7393866;19;20031;-67
2023/05/28 10:20:14;;;;;;;3.28;2.10;;;;;;;20.05;30.50;101401.84;7393839;19;20031;-66
2023/05/28 10:22:43;;;;;;;3.80;2.05;;;;;;;20.12;30.27;101403.22;7393457;19;20022;-67
2023/05/28 10:25:12;;;;;;;3.83;1.95;;;;;;;20.18;29.91;101394.91;7392689;19;20066;-67
2023/05/28 10:27:48;;;;;;;3.50;1.88;;;;;;;20.24;29.86;101394.59;7394942;19;20035;-67
2023/05/28 10:30:35;;;;;;;4.55;2.05;;;;;;;20.30;29.39;101388.94;7393750;19;20395;-67
2023/05/28 10:33:07;;;;;;;3.65;2.17;;;;;;;20.37;29.63;101385.97;7394782;19;20427;-67
2023/05/28 10:35:37;;;;;;;5.20;2.00;;;;;;;20.44;29.69;101387.38;7392224;19;20011;-67
2023/05/28 10:38:07;;;;;;;3.85;2.30;;;;;;;20.53;29.41;101394.84;7394261;19;20496;-66
2023/05/28 10:40:37;;;;;;;5.53;2.58;;;;;;;20.61;29.13;101382.00;7392912;19;20014;-67
2023/05/28 10:43:30;;;;;;;3.30;2.17;;;;;;;20.69;29.11;101373.59;7392261;19;20428;-67
2023/05/28 10:45:58;;;;;;;4.68;2.10;;;;;;;20.80;29.08;101383.66;7392873;19;20031;-67
2023/05/28 10:48:27;;;;;;;3.15;2.08;;;;;;;20.90;28.51;101389.38;7392254;19;20513;-66
2023/05/28 10:51:00;;;;;;;4.40;2.30;;;;;;;21.01;28.45;101386.13;7392622;19;20212;-67
2023/05/28 10:53:29;;;;;;;7.75;2.33;;;;;;;21.10;28.17;101378.44;7393617;19;20082;-66
2023/05/28 10:55:58;;;;;;;4.55;2.30;;;;;;;21.18;28.24;101382.50;7393955;19;20018;-67
2023/05/28 10:58:30;;;;;;;3.20;2.17;;;;;;;21.24;28.23;101385.66;7393651;19;20014;-66
2023/05/28 11:01:22;;;;;;;3.25;2.17;;;;;;;21.32;27.99;101378.09;7393872;19;20027;-67
2023/05/28 11:03:55;;;;;;;4.35;2.17;;;;;;;21.39;27.53;101377.75;7392261;19;20492;-67
2023/05/28 11:06:27;;;;;;;4.13;2.38;;;;;;;21.46;28.00;101379.13;7391727;19;20011;-67
2023/05/28 11:08:55;;;;;;;4.38;2.53;;;;;;;21.52;28.10;101376.09;7393618;19;20489;-66
2023/05/28 11:11:25;;;;;;;3.28;1.92;;;;;;;21.59;28.11;101376.63;7396864;19;20015;-67
2023/05/28 11:13:57;;;;;;;5.25;2.05;;;;;;;21.67;28.12;101368.19;7398179;19;20019;-66
2023/05/28 11:16:25;;;;;;;2.88;2.00;;;;;;;21.79;28.16;101372.81;7401690;19;20035;-67
2023/05/28 11:19:04;;;;;;;3.67;1.98;;;;;;;21.91;27.90;101376.53;7399283;19;20102;-66
2023/05/28 11:21:33;;;;;;;6.50;2.67;;;;;;;22.03;28.04;101374.97;7398644;19;20015;-67
2023/05/28 11:24:03;;;;;;;5.70;2.33;;;;;;;22.16;27.50;101380.41;7397458;19;20010;-67
2023/05/28 11:26:32;;;;;;;4.53;2.63;;;;;;;22.27;27.82;101385.97;7399029;19;20031;-67
2023/05/28 11:29:05;;;;;;;3.65;2.47;;;;;;;22.34;27.13;101373.09;7400662;19;20367;-67
2023/05/28 11:31:40;;;;;;;4.10;2.20;;;;;;;22.40;26.67;101380.75;7398230;19;20036;-67
2023/05/28 11:34:09;;;;;;;4.65;2.22;;;;;;;22.49;27.43;101373.97;7399000;19;20101;-67
2023/05/28 11:36:41;;;;;;;3.22;2.17;;;;;;;22.57;26.91;101374.34;7397934;19;20031;-67
2023/05/28 11:39:10;;;;;;;5.70;2.58;;;;;;;22.65;26.54;101369.41;7397685;19;20014;-67